Time,TemperatureF,DewpointF,PressureIn,WindDirection,WindDirectionDegrees,WindSpeedMPH,WindSpeedGustMPH,Humidity,HourlyPrecipIn,Conditions,Clouds,dailyrainin,SoftwareType,DateUTC
2013-03-04 00:00:00,28.0,-99.9,-100.00,NNE,25,5.0,18.0,-999,-99.99,,,-99.99,,2013-03-04 06:00:00,
2013-03-04 00:32:00,28.0,-99.9,-100.00,NNE,25,5.0,18.0,-999,-99.99,,,-99.99,,2013-03-04 06:32:00,
2013-03-04 00:42:00,28.0,-99.9,-100.00,NNE,25,5.0,18.0,-999,-99.99,,,-99.99,,2013-03-04 06:42:00,
2013-03-04 00:52:00,28.0,-99.9,-100.00,NNE,25,5.0,18.0,-999,-99.99,,,-99.99,,2013-03-04 06:52:00,
2013-03-04 01:00:00,27.0,-99.9,-100.00,SSE,150,2.0,13.0,-999,-99.99,,,-99.99,,2013-03-04 07:00:00,
2013-03-04 01:32:00,27.0,-99.9,-100.00,SSE,150,2.0,13.0,-999,-99.99,,,-99.99,,2013-03-04 07:32:00,
2013-03-04 01:42:00,27.0,-99.9,-100.00,SSE,150,2.0,13.0,-999,-99.99,,,-99.99,,2013-03-04 07:42:00,
2013-03-04 01:52:00,27.0,-99.9,-100.00,SSE,150,2.0,13.0,-999,-99.99,,,-99.99,,2013-03-04 07:52:00,
2013-03-04 02:00:00,27.0,-99.9,-100.00,SSE,156,1.0,16.0,-999,-99.99,,,-99.99,,2013-03-04 08:00:00,
2013-03-04 02:32:00,27.0,-99.9,-100.00,SSE,156,1.0,16.0,-999,-99.99,,,-99.99,,2013-03-04 08:32:00,
2013-03-04 02:42:00,27.0,-99.9,-100.00,SSE,156,1.0,16.0,-999,-99.99,,,-99.99,,2013-03-04 08:42:00,
2013-03-04 02:53:00,27.0,-99.9,-100.00,SSE,156,1.0,16.0,-999,-99.99,,,-99.99,,2013-03-04 08:53:00,
2013-03-04 03:00:00,27.0,-99.9,-100.00,NE,45,20.0,20.0,-999,-99.99,,,-99.99,,2013-03-04 09:00:00,
2013-03-04 03:32:00,27.0,-99.9,-100.00,NE,45,20.0,20.0,-999,-99.99,,,-99.99,,2013-03-04 09:32:00,
2013-03-04 03:42:00,27.0,-99.9,-100.00,NE,45,20.0,20.0,-999,-99.99,,,-99.99,,2013-03-04 09:42:00,
2013-03-04 03:52:00,27.0,-99.9,-100.00,NE,45,20.0,20.0,-999,-99.99,,,-99.99,,2013-03-04 09:52:00,
2013-03-04 04:00:00,28.0,-99.9,-100.00,ENE,70,20.0,21.0,-999,-99.99,,,-99.99,,2013-03-04 10:00:00,
2013-03-04 04:32:00,28.0,-99.9,-100.00,ENE,70,20.0,21.0,-999,-99.99,,,-99.99,,2013-03-04 10:32:00,
2013-03-04 04:42:00,28.0,-99.9,-100.00,ENE,70,20.0,21.0,-999,-99.99,,,-99.99,,2013-03-04 10:42:00,
2013-03-04 04:52:00,28.0,-99.9,-100.00,ENE,70,20.0,21.0,-999,-99.99,,,-99.99,,2013-03-04 10:52:00,
2013-03-04 05:00:00,28.0,-99.9,-100.00,NE,45,6.0,13.0,-999,-99.99,,,-99.99,,2013-03-04 11:00:00,
2013-03-04 05:52:00,28.0,-99.9,-100.00,NE,45,6.0,13.0,-999,-99.99,,,-99.99,,2013-03-04 11:52:00,
2013-03-04 06:00:00,29.0,-99.9,-100.00,ENE,78,11.0,17.0,-999,-99.99,,,-99.99,,2013-03-04 12:00:00,
2013-03-04 06:32:00,29.0,-99.9,-100.00,ENE,78,11.0,17.0,-999,-99.99,,,-99.99,,2013-03-04 12:32:00,
2013-03-04 06:43:00,29.0,-99.9,-100.00,ENE,78,11.0,17.0,-999,-99.99,,,-99.99,,2013-03-04 12:43:00,
2013-03-04 06:53:00,29.0,-99.9,-100.00,ENE,78,11.0,17.0,-999,-99.99,,,-99.99,,2013-03-04 12:53:00,
2013-03-04 07:00:00,29.0,-99.9,-100.00,ENE,64,11.0,23.0,-999,-99.99,,,-99.99,,2013-03-04 13:00:00,
2013-03-04 07:52:00,29.0,-99.9,-100.00,ENE,64,11.0,23.0,-999,-99.99,,,-99.99,,2013-03-04 13:52:00,
2013-03-04 08:00:00,29.0,-99.9,-100.00,ENE,63,2.0,16.0,-999,-99.99,,,-99.99,,2013-03-04 14:00:00,
2013-03-04 08:32:00,29.0,-99.9,-100.00,ENE,63,2.0,16.0,-999,-99.99,,,-99.99,,2013-03-04 14:32:00,
2013-03-04 08:42:00,29.0,-99.9,-100.00,ENE,63,2.0,16.0,-999,-99.99,,,-99.99,,2013-03-04 14:42:00,
2013-03-04 08:52:00,29.0,-99.9,-100.00,ENE,63,2.0,16.0,-999,-99.99,,,-99.99,,2013-03-04 14:52:00,
2013-03-04 09:00:00,30.0,-99.9,-100.00,NNE,26,8.0,16.0,-999,-99.99,,,-99.99,,2013-03-04 15:00:00,
2013-03-04 09:32:00,30.0,-99.9,-100.00,NNE,26,8.0,16.0,-999,-99.99,,,-99.99,,2013-03-04 15:32:00,
2013-03-04 09:42:00,30.0,-99.9,-100.00,NNE,26,8.0,16.0,-999,-99.99,,,-99.99,,2013-03-04 15:42:00,
2013-03-04 09:52:00,30.0,-99.9,-100.00,NNE,26,8.0,16.0,-999,-99.99,,,-99.99,,2013-03-04 15:52:00,
2013-03-04 10:00:00,32.0,-99.9,-100.00,East,97,11.0,18.0,-999,-99.99,,,-99.99,,2013-03-04 16:00:00,
2013-03-04 10:42:00,32.0,-99.9,-100.00,East,97,11.0,18.0,-999,-99.99,,,-99.99,,2013-03-04 16:42:00,
2013-03-04 10:52:00,32.0,-99.9,-100.00,East,97,11.0,18.0,-999,-99.99,,,-99.99,,2013-03-04 16:52:00,
2013-03-04 11:00:00,32.0,-99.9,-100.00,ENE,78,4.0,16.0,-999,-99.99,,,-99.99,,2013-03-04 17:00:00,
2013-03-04 11:52:00,32.0,-99.9,-100.00,ENE,78,4.0,16.0,-999,-99.99,,,-99.99,,2013-03-04 17:52:00,
2013-03-04 12:00:00,32.0,-99.9,-100.00,NE,52,7.0,12.0,-999,-99.99,,,-99.99,,2013-03-04 18:00:00,
2013-03-04 12:33:00,32.0,-99.9,-100.00,NE,52,7.0,12.0,-999,-99.99,,,-99.99,,2013-03-04 18:33:00,
2013-03-04 12:43:00,32.0,-99.9,-100.00,NE,52,7.0,12.0,-999,-99.99,,,-99.99,,2013-03-04 18:43:00,
2013-03-04 12:53:00,32.0,-99.9,-100.00,NE,52,7.0,12.0,-999,-99.99,,,-99.99,,2013-03-04 18:53:00,
2013-03-04 13:00:00,34.0,-99.9,-100.00,NE,48,16.0,19.0,-999,-99.99,,,-99.99,,2013-03-04 19:00:00,
2013-03-04 13:33:00,34.0,-99.9,-100.00,NE,48,16.0,19.0,-999,-99.99,,,-99.99,,2013-03-04 19:33:00,
2013-03-04 13:42:00,34.0,-99.9,-100.00,NE,48,16.0,19.0,-999,-99.99,,,-99.99,,2013-03-04 19:42:00,
2013-03-04 13:52:00,34.0,-99.9,-100.00,NE,48,16.0,19.0,-999,-99.99,,,-99.99,,2013-03-04 19:52:00,
2013-03-04 14:00:00,34.0,-99.9,-100.00,North,9,0.0,5.0,-999,-99.99,,,-99.99,,2013-03-04 20:00:00,
2013-03-04 14:33:00,34.0,-99.9,-100.00,North,9,0.0,5.0,-999,-99.99,,,-99.99,,2013-03-04 20:33:00,
2013-03-04 14:42:00,34.0,-99.9,-100.00,North,9,0.0,5.0,-999,-99.99,,,-99.99,,2013-03-04 20:42:00,
2013-03-04 14:53:00,34.0,-99.9,-100.00,North,9,0.0,5.0,-999,-99.99,,,-99.99,,2013-03-04 20:53:00,
2013-03-04 15:00:00,33.0,-99.9,-100.00,NE,41,5.0,10.0,-999,-99.99,,,-99.99,,2013-03-04 21:00:00,
2013-03-04 15:33:00,33.0,-99.9,-100.00,NE,41,5.0,10.0,-999,-99.99,,,-99.99,,2013-03-04 21:33:00,
2013-03-04 15:43:00,33.0,-99.9,-100.00,NE,41,5.0,10.0,-999,-99.99,,,-99.99,,2013-03-04 21:43:00,
2013-03-04 15:53:00,33.0,-99.9,-100.00,NE,41,5.0,10.0,-999,-99.99,,,-99.99,,2013-03-04 21:53:00,
2013-03-04 16:00:00,33.0,-99.9,-100.00,NNE,13,2.0,8.0,-999,-99.99,,,-99.99,,2013-03-04 22:00:00,
2013-03-04 16:32:00,33.0,-99.9,-100.00,NNE,13,2.0,8.0,-999,-99.99,,,-99.99,,2013-03-04 22:32:00,
2013-03-04 16:43:00,33.0,-99.9,-100.00,NNE,13,2.0,8.0,-999,-99.99,,,-99.99,,2013-03-04 22:43:00,
2013-03-04 16:52:00,33.0,-99.9,-100.00,NNE,13,2.0,8.0,-999,-99.99,,,-99.99,,2013-03-04 22:52:00,
2013-03-04 17:00:00,32.0,-99.9,-100.00,NE,55,1.0,6.0,-999,-99.99,,,-99.99,,2013-03-04 23:00:00,
2013-03-04 17:32:00,32.0,-99.9,-100.00,NE,55,1.0,6.0,-999,-99.99,,,-99.99,,2013-03-04 23:32:00,
2013-03-04 17:42:00,32.0,-99.9,-100.00,NE,55,1.0,6.0,-999,-99.99,,,-99.99,,2013-03-04 23:42:00,
2013-03-04 17:53:00,32.0,-99.9,-100.00,NE,55,1.0,6.0,-999,-99.99,,,-99.99,,2013-03-04 23:53:00,
2013-03-04 18:00:00,32.0,-99.9,-100.00,NE,44,8.0,14.0,-999,-99.99,,,-99.99,,2013-03-05 00:00:00,
2013-03-04 18:52:00,32.0,-99.9,-100.00,NE,44,8.0,14.0,-999,-99.99,,,-99.99,,2013-03-05 00:52:00,
2013-03-04 20:00:00,32.0,-99.9,-100.00,NW,312,0.0,4.0,-999,-99.99,,,-99.99,,2013-03-05 02:00:00,
2013-03-04 20:33:00,32.0,-99.9,-100.00,NW,312,0.0,4.0,-999,-99.99,,,-99.99,,2013-03-05 02:33:00,
2013-03-04 20:42:00,32.0,-99.9,-100.00,NW,312,0.0,4.0,-999,-99.99,,,-99.99,,2013-03-05 02:42:00,
2013-03-04 20:53:00,32.0,-99.9,-100.00,NW,312,0.0,4.0,-999,-99.99,,,-99.99,,2013-03-05 02:53:00,
2013-03-04 21:00:00,32.0,-99.9,-100.00,NW,318,5.0,5.0,-999,-99.99,,,-99.99,,2013-03-05 03:00:00,
2013-03-04 21:32:00,32.0,-99.9,-100.00,NW,318,5.0,5.0,-999,-99.99,,,-99.99,,2013-03-05 03:32:00,
2013-03-04 21:42:00,32.0,-99.9,-100.00,NW,318,5.0,5.0,-999,-99.99,,,-99.99,,2013-03-05 03:42:00,
2013-03-04 21:53:00,32.0,-99.9,-100.00,NW,318,5.0,5.0,-999,-99.99,,,-99.99,,2013-03-05 03:53:00,
2013-03-04 22:00:00,32.0,-99.9,-100.00,NNE,13,0.0,4.0,-999,-99.99,,,-99.99,,2013-03-05 04:00:00,
2013-03-04 22:32:00,32.0,-99.9,-100.00,NNE,13,0.0,4.0,-999,-99.99,,,-99.99,,2013-03-05 04:32:00,
2013-03-04 22:42:00,32.0,-99.9,-100.00,NNE,13,0.0,4.0,-999,-99.99,,,-99.99,,2013-03-05 04:42:00,
2013-03-04 22:52:00,32.0,-99.9,-100.00,NNE,13,0.0,4.0,-999,-99.99,,,-99.99,,2013-03-05 04:52:00,
2013-03-04 23:00:00,32.0,-99.9,-100.00,NNW,330,3.0,3.0,-999,-99.99,,,-99.99,,2013-03-05 05:00:00,
2013-03-04 23:32:00,32.0,-99.9,-100.00,NNW,330,3.0,3.0,-999,-99.99,,,-99.99,,2013-03-05 05:32:00,
2013-03-04 23:42:00,32.0,-99.9,-100.00,NNW,330,3.0,3.0,-999,-99.99,,,-99.99,,2013-03-05 05:42:00,
2013-03-04 23:52:00,32.0,-99.9,-100.00,NNW,330,3.0,3.0,-999,-99.99,,,-99.99,,2013-03-05 05:52:00,